Terminal Aerodrome Forecast
Issued by NWS

Home | Current Version | Previous Version | Text Only | Print | Product List | Glossary Off
Versions: 1 2 3 4 5 6 7 8 9 10 11 12 13 14 15 16 17

000
FTUS43 KICT 220959 AAA
TAFRSL
TAF AMD
KRSL 220959Z 2210/2306 20012KT 1/2SM FG VV002
      TEMPO 2210/2214 3SM BR SCT006 BKN010
     FM221500 19014KT P6SM SCT010
     FM230200 18008KT P6SM BKN010=

USA.gov is the U.S. government's official web portal to all federal, state and local government web resources and services.